createdAt,value
2023-02-13T00:00:51.596Z,102131.75
2023-02-13T00:03:40.137Z,102128.56
2023-02-13T00:06:30.238Z,102128.25
2023-02-13T00:09:18.765Z,102136.28
2023-02-13T00:12:08.541Z,102120.59
2023-02-13T00:14:57.047Z,102120.28
2023-02-13T00:17:45.550Z,102134.84
2023-02-13T00:20:34.107Z,102127.72
2023-02-13T00:23:24.202Z,102126.25
2023-02-13T00:26:14.024Z,102138.88
2023-02-13T00:29:02.495Z,102133.75
2023-02-13T00:31:51.058Z,102141.72
2023-02-13T00:34:39.600Z,102137.06
2023-02-13T00:37:28.057Z,102148.09
2023-02-13T00:40:17.882Z,102128.47
2023-02-13T00:43:06.315Z,102128.78
2023-02-13T00:45:54.832Z,102124.75
2023-02-13T00:48:43.422Z,102122.69
2023-02-13T00:51:31.938Z,102118.97
2023-02-13T00:54:20.490Z,102118.59
2023-02-13T00:57:10.297Z,102097.97
2023-02-13T00:59:58.815Z,102125.94
2023-02-13T01:02:47.777Z,102115.38
2023-02-13T01:05:36.870Z,102130.56
2023-02-13T01:08:28.227Z,102110.28
2023-02-13T01:11:16.776Z,102129.41
2023-02-13T01:14:06.886Z,102127.78
2023-02-13T01:16:56.551Z,102129.94
2023-02-13T01:19:45.094Z,102124.66
2023-02-13T01:22:33.716Z,102127.41
2023-02-13T01:25:23.087Z,102128.06
2023-02-13T01:28:11.602Z,102122.69
2023-02-13T01:31:02.291Z,102082.97
2023-02-13T01:33:51.224Z,102047.69
2023-02-13T01:36:40.118Z,102114.41
2023-02-13T01:39:28.782Z,102112.41
2023-02-13T01:42:18.562Z,102108.16
2023-02-13T01:45:14.751Z,102058.94
2023-02-13T01:48:06.979Z,102113.50
2023-02-13T01:50:57.651Z,102111.34
2023-02-13T01:53:49.214Z,102117.13
2023-02-13T01:56:39.956Z,102114.22
2023-02-13T01:59:32.213Z,102118.25
2023-02-13T02:02:21.136Z,102115.72
2023-02-13T02:05:11.534Z,102114.31
2023-02-13T02:08:01.462Z,102113.56
2023-02-13T02:10:49.973Z,102123.03
2023-02-13T02:13:38.766Z,102133.16
2023-02-13T02:16:27.513Z,102132.59
2023-02-13T02:19:22.962Z,102089.47
2023-02-13T02:22:26.779Z,102115.81
2023-02-13T02:25:31.771Z,102124.91
2023-02-13T02:28:41.193Z,102126.41
2023-02-13T02:31:58.953Z,102115.81
2023-02-13T02:34:54.352Z,102113.94
2023-02-13T02:38:00.624Z,102115.03
2023-02-13T02:41:01.505Z,102108.84
2023-02-13T02:43:56.344Z,102105.03
2023-02-13T02:47:15.842Z,102101.44
2023-02-13T02:50:17.655Z,102103.84
2023-02-13T02:53:11.070Z,102044.69
2023-02-13T02:56:05.800Z,102102.19
2023-02-13T02:59:15.136Z,102096.97
2023-02-13T03:02:23.049Z,102100.69
2023-02-13T03:05:37.673Z,102113.44
2023-02-13T03:08:40.202Z,102102.47
2023-02-13T03:11:46.516Z,102111.50
2023-02-13T03:14:35.188Z,102110.00
2023-02-13T03:17:43.010Z,102105.56
2023-02-13T03:20:55.736Z,102110.13
2023-02-13T03:23:52.187Z,102111.59
2023-02-13T03:26:50.470Z,102111.19
2023-02-13T03:30:02.798Z,102121.78
2023-02-13T03:32:59.400Z,102118.47
2023-02-13T03:36:08.746Z,102132.78
2023-02-13T03:39:00.261Z,102125.56
2023-02-13T03:41:51.778Z,102128.22
2023-02-13T03:44:44.457Z,102143.69
2023-02-13T03:47:33.006Z,102142.63
2023-02-13T03:50:21.987Z,102157.22
2023-02-13T03:53:12.416Z,102152.69
2023-02-13T03:56:19.495Z,102152.91
2023-02-13T03:59:17.007Z,102157.88
2023-02-13T04:02:09.612Z,102155.56
2023-02-13T04:05:01.456Z,102162.69
2023-02-13T04:07:51.333Z,102164.63
2023-02-13T04:10:46.624Z,102157.03
2023-02-13T04:13:36.489Z,102137.63
2023-02-13T04:16:29.819Z,102170.78
2023-02-13T04:19:18.474Z,102160.09
2023-02-13T04:22:06.942Z,102155.44
2023-02-13T04:24:56.864Z,102168.34
2023-02-13T04:27:45.411Z,102170.91
2023-02-13T04:30:34.377Z,102169.88
2023-02-13T04:33:22.878Z,102177.72
2023-02-13T04:36:11.397Z,102094.75
2023-02-13T04:38:59.931Z,102169.88
2023-02-13T04:41:49.723Z,102170.69
2023-02-13T04:44:38.201Z,102167.28
2023-02-13T04:47:26.843Z,102160.91
2023-02-13T04:50:15.346Z,102166.59
2023-02-13T04:53:03.814Z,102168.84
2023-02-13T04:55:53.136Z,102106.56
2023-02-13T04:58:42.955Z,102154.81
2023-02-13T05:01:31.642Z,102160.41
2023-02-13T05:04:20.369Z,102150.13
2023-02-13T05:07:08.883Z,102151.47
2023-02-13T05:09:57.322Z,102155.91
2023-02-13T05:12:45.837Z,102127.09
2023-02-13T05:15:35.870Z,102148.91
2023-02-13T05:18:24.351Z,102148.91
2023-02-13T05:21:30.196Z,102147.88
2023-02-13T05:24:20.517Z,102146.75
2023-02-13T05:27:09.231Z,102136.88
2023-02-13T05:29:57.710Z,102136.56
2023-02-13T05:32:47.549Z,102139.50
2023-02-13T05:35:36.041Z,102133.84
2023-02-13T05:38:24.530Z,102150.28
2023-02-13T05:41:13.514Z,102149.38
2023-02-13T05:44:02.037Z,102117.03
2023-02-13T05:46:50.537Z,102145.88
2023-02-13T05:49:40.373Z,102153.69
2023-02-13T05:52:28.933Z,102154.94
2023-02-13T05:55:17.586Z,102133.50
2023-02-13T05:58:06.067Z,102145.00
2023-02-13T06:00:57.034Z,102120.09
2023-02-13T06:03:45.780Z,102129.31
2023-02-13T06:06:35.746Z,102130.16
2023-02-13T06:09:24.303Z,102126.66
2023-02-13T06:12:12.809Z,102127.09
2023-02-13T06:15:01.348Z,102131.78
2023-02-13T06:17:49.849Z,102122.81
2023-02-13T06:20:38.619Z,102131.69
2023-02-13T06:23:28.669Z,102133.72
2023-02-13T06:26:17.147Z,102133.25
2023-02-13T06:29:06.770Z,102132.38
2023-02-13T06:31:55.327Z,102124.22
2023-02-13T06:34:43.840Z,102089.84
2023-02-13T06:37:32.338Z,102133.50
2023-02-13T06:40:22.232Z,102131.47
2023-02-13T06:43:10.752Z,102135.09
2023-02-13T06:45:59.521Z,102146.72
2023-02-13T06:48:47.983Z,102132.44
2023-02-13T06:51:36.445Z,102131.00
2023-02-13T06:54:34.541Z,102145.97
2023-02-13T06:57:34.699Z,102145.91
2023-02-13T07:00:26.117Z,102151.19
2023-02-13T07:03:15.675Z,102147.06
2023-02-13T07:06:04.271Z,102158.16
2023-02-13T07:08:55.408Z,102160.19
2023-02-13T07:11:43.916Z,102144.88
2023-02-13T07:14:33.756Z,102159.00
2023-02-13T07:17:22.237Z,102162.81
2023-02-13T07:20:11.577Z,102167.47
2023-02-13T07:23:00.860Z,102164.53
2023-02-13T07:25:49.327Z,102168.84
2023-02-13T07:28:37.844Z,102167.28
2023-02-13T07:31:27.808Z,102166.44
2023-02-13T07:34:16.602Z,102167.88
2023-02-13T07:37:05.138Z,102164.25
2023-02-13T07:39:53.621Z,102181.47
2023-02-13T07:42:42.464Z,102188.00
2023-02-13T07:45:31.367Z,102181.00
2023-02-13T07:48:21.320Z,102183.66
2023-02-13T07:51:10.422Z,102181.38
2023-02-13T07:53:59.064Z,102182.72
2023-02-13T07:56:47.796Z,102189.25
2023-02-13T07:59:36.308Z,102181.88
2023-02-13T08:02:25.027Z,102186.44
2023-02-13T08:05:15.327Z,102186.69
2023-02-13T08:08:04.312Z,102092.63
2023-02-13T08:11:10.552Z,102184.00
2023-02-13T08:13:59.041Z,102189.41
2023-02-13T08:16:47.593Z,102160.63
2023-02-13T08:19:36.075Z,102183.16
2023-02-13T08:22:26.022Z,102194.00
2023-02-13T08:25:14.592Z,102197.59
2023-02-13T08:28:03.211Z,102197.28
2023-02-13T08:30:51.734Z,102186.75
2023-02-13T08:33:41.405Z,102191.53
2023-02-13T08:36:29.988Z,102194.13
2023-02-13T08:39:19.881Z,102204.41
2023-02-13T08:42:08.409Z,102190.56
2023-02-13T08:44:58.195Z,102196.19
2023-02-13T08:47:47.363Z,102193.25
2023-02-13T08:50:37.303Z,102195.78
2023-02-13T08:53:26.077Z,102196.41
2023-02-13T08:56:16.001Z,102193.78
2023-02-13T08:59:04.600Z,102197.59
2023-02-13T09:01:53.077Z,102204.03
2023-02-13T09:04:41.629Z,102204.31
2023-02-13T09:07:30.151Z,102209.78
2023-02-13T09:10:19.321Z,102208.47
2023-02-13T09:13:09.202Z,102207.19
2023-02-13T09:16:00.406Z,102206.25
2023-02-13T09:18:49.544Z,102209.19
2023-02-13T09:21:38.057Z,102199.38
2023-02-13T09:24:26.829Z,102209.66
2023-02-13T09:27:15.643Z,102190.69
2023-02-13T09:30:06.196Z,102207.72
2023-02-13T09:32:55.518Z,102208.31
2023-02-13T09:35:44.789Z,102204.25
2023-02-13T09:38:33.223Z,102209.63
2023-02-13T09:41:25.282Z,102215.16
2023-02-13T09:44:34.036Z,102212.34
2023-02-13T09:47:29.435Z,102204.88
2023-02-13T09:50:23.261Z,102211.03
2023-02-13T09:53:19.745Z,102216.13
2023-02-13T09:56:12.296Z,102225.94
2023-02-13T09:59:04.846Z,102220.59
2023-02-13T10:01:54.224Z,102223.53
2023-02-13T10:04:49.700Z,102218.06
2023-02-13T10:07:41.683Z,102223.13
2023-02-13T10:10:36.598Z,102224.84
2023-02-13T10:13:32.358Z,102228.06
2023-02-13T10:16:22.556Z,102230.47
2023-02-13T10:19:20.368Z,102241.03
2023-02-13T10:22:13.119Z,102219.78
2023-02-13T10:25:04.536Z,102237.78
2023-02-13T10:27:56.191Z,102224.53
2023-02-13T10:30:50.465Z,102232.56
2023-02-13T10:33:44.178Z,102222.88
2023-02-13T10:36:35.668Z,102228.63
2023-02-13T10:39:28.739Z,102214.72
2023-02-13T10:42:25.944Z,102205.75
2023-02-13T10:45:30.372Z,102213.09
2023-02-13T10:48:31.251Z,102212.13
2023-02-13T10:51:26.657Z,102205.50
2023-02-13T10:54:23.771Z,102215.09
2023-02-13T10:57:19.528Z,102199.44
2023-02-13T11:00:12.750Z,102203.81
2023-02-13T11:03:01.310Z,102194.53
2023-02-13T11:05:51.293Z,102186.47
2023-02-13T11:08:43.122Z,102189.56
2023-02-13T11:11:36.035Z,102188.47
2023-02-13T11:14:26.919Z,102189.41
2023-02-13T11:17:18.585Z,102188.84
2023-02-13T11:20:09.543Z,102189.44
2023-02-13T11:22:58.878Z,102192.50
2023-02-13T11:25:58.166Z,102174.91
2023-02-13T11:28:50.276Z,102191.63
2023-02-13T11:31:40.320Z,102193.94
2023-02-13T11:34:30.867Z,102185.72
2023-02-13T11:37:25.354Z,102187.09
2023-02-13T11:40:30.775Z,102179.84
2023-02-13T11:43:21.208Z,102185.88
2023-02-13T11:46:17.015Z,102179.47
2023-02-13T11:49:08.412Z,102176.22
2023-02-13T11:51:58.258Z,102170.38
2023-02-13T11:54:47.095Z,102086.84
2023-02-13T11:57:37.082Z,102169.63
2023-02-13T12:00:35.380Z,102149.09
2023-02-13T12:03:30.079Z,102090.31
2023-02-13T12:06:20.844Z,102166.16
2023-02-13T12:09:14.059Z,102174.56
2023-02-13T12:12:06.436Z,102163.53
2023-02-13T12:14:57.126Z,102164.91
2023-02-13T12:17:46.857Z,102152.31
2023-02-13T12:20:43.779Z,102158.75
2023-02-13T12:23:43.236Z,102143.00
2023-02-13T12:26:34.566Z,102143.16
2023-02-13T12:29:50.475Z,102137.63
2023-02-13T12:32:48.651Z,102151.03
2023-02-13T12:35:46.675Z,102148.34
2023-02-13T12:38:52.517Z,102139.91
2023-02-13T12:41:48.803Z,102145.25
2023-02-13T12:45:08.134Z,102141.94
2023-02-13T12:48:22.673Z,102127.41
2023-02-13T12:51:30.309Z,102123.63
2023-02-13T12:54:43.815Z,102127.28
2023-02-13T12:57:44.280Z,102118.19
2023-02-13T13:00:41.271Z,102121.41
2023-02-13T13:03:37.958Z,102106.75
2023-02-13T13:06:40.818Z,102119.97
2023-02-13T13:09:44.619Z,102104.53
2023-02-13T13:12:41.385Z,102074.75
2023-02-13T13:15:35.053Z,102103.84
2023-02-13T13:18:30.966Z,102087.41
2023-02-13T13:21:27.419Z,102105.81
2023-02-13T13:24:33.342Z,102105.88
2023-02-13T13:27:26.603Z,102100.97
2023-02-13T13:30:19.574Z,102096.94
2023-02-13T13:33:15.095Z,102095.28
2023-02-13T13:36:08.824Z,102096.63
2023-02-13T13:39:01.933Z,102102.06
2023-02-13T13:41:54.869Z,102095.16
2023-02-13T13:45:13.383Z,102091.59
2023-02-13T13:48:15.443Z,102098.53
2023-02-13T13:51:04.251Z,101968.97
2023-02-13T13:54:21.365Z,102099.06
2023-02-13T13:57:12.516Z,102089.50
2023-02-13T14:00:27.574Z,102082.63
2023-02-13T14:03:35.661Z,102083.13
2023-02-13T14:06:25.449Z,102093.69
2023-02-13T14:09:38.600Z,102084.63
2023-02-13T14:12:45.879Z,102087.47
2023-02-13T14:15:51.586Z,102084.31
2023-02-13T14:18:47.088Z,102073.69
2023-02-13T14:21:35.849Z,102083.13
2023-02-13T14:24:25.497Z,102075.75
2023-02-13T14:27:22.304Z,102075.91
2023-02-13T14:30:28.134Z,102077.75
2023-02-13T14:33:25.679Z,102072.03
2023-02-13T14:36:23.165Z,102073.31
2023-02-13T14:39:22.167Z,102040.50
2023-02-13T14:42:25.018Z,102064.34
2023-02-13T14:45:16.949Z,102063.16
2023-02-13T14:48:08.206Z,102044.91
2023-02-13T14:50:58.096Z,102059.16
2023-02-13T14:53:52.319Z,102053.28
2023-02-13T14:56:40.835Z,102058.00
2023-02-13T14:59:35.212Z,102009.47
2023-02-13T15:02:25.130Z,102058.06
2023-02-13T15:05:16.090Z,102058.22
2023-02-13T15:08:07.992Z,102049.59
2023-02-13T15:10:58.560Z,102046.63
2023-02-13T15:13:47.222Z,102049.53
2023-02-13T15:16:35.789Z,102044.22
2023-02-13T15:19:24.927Z,101981.28
2023-02-13T15:22:20.470Z,102042.56
2023-02-13T15:25:10.003Z,102038.47
2023-02-13T15:28:00.662Z,102043.31
2023-02-13T15:30:57.048Z,102041.91
2023-02-13T15:33:48.202Z,102046.75
2023-02-13T15:36:42.015Z,102043.31
2023-02-13T15:39:32.560Z,102025.97
2023-02-13T15:42:21.191Z,102045.56
2023-02-13T15:45:16.821Z,102036.75
2023-02-13T15:48:05.815Z,102042.56
2023-02-13T15:50:54.383Z,102048.66
2023-02-13T15:53:52.157Z,102044.06
2023-02-13T15:56:46.047Z,102036.22
2023-02-13T15:59:37.742Z,102044.69
2023-02-13T16:02:33.143Z,102039.66
2023-02-13T16:05:37.528Z,102042.19
2023-02-13T16:08:33.640Z,102031.28
2023-02-13T16:11:26.970Z,102040.88
2023-02-13T16:14:18.501Z,102042.13
2023-02-13T16:17:08.285Z,102036.53
2023-02-13T16:20:01.307Z,102036.97
2023-02-13T16:22:52.266Z,102034.88
2023-02-13T16:25:41.916Z,102028.97
2023-02-13T16:28:32.743Z,102032.53
2023-02-13T16:31:22.779Z,102045.19
2023-02-13T16:34:25.026Z,102025.78
2023-02-13T16:37:32.318Z,102037.16
2023-02-13T16:40:41.720Z,102000.91
2023-02-13T16:43:51.761Z,102044.50
2023-02-13T16:46:41.282Z,102042.09
2023-02-13T16:49:31.067Z,102038.72
2023-02-13T16:52:23.270Z,102039.84
2023-02-13T16:55:16.165Z,102044.06
2023-02-13T16:58:05.445Z,102038.44
2023-02-13T17:00:54.005Z,102041.47
2023-02-13T17:03:42.528Z,102040.03
2023-02-13T17:06:31.061Z,102051.06
2023-02-13T17:09:19.825Z,102056.78
2023-02-13T17:12:15.817Z,102044.78
2023-02-13T17:15:05.063Z,102051.88
2023-02-13T17:17:54.547Z,102051.69
2023-02-13T17:20:44.782Z,102059.19
2023-02-13T17:23:33.194Z,102062.06
2023-02-13T17:26:21.662Z,102041.69
2023-02-13T17:29:11.549Z,102064.38
2023-02-13T17:32:00.141Z,102062.75
2023-02-13T17:34:48.749Z,102073.91
2023-02-13T17:37:37.338Z,102064.13
2023-02-13T17:40:29.473Z,102042.31
2023-02-13T17:43:21.604Z,102057.19
2023-02-13T17:46:11.435Z,102074.75
2023-02-13T17:48:59.930Z,102068.63
2023-02-13T17:51:48.470Z,102072.88
2023-02-13T17:54:37.019Z,102065.88
2023-02-13T17:57:25.566Z,102084.50
2023-02-13T18:00:14.826Z,102075.69
2023-02-13T18:03:05.146Z,102082.47
2023-02-13T18:05:53.682Z,102037.16
2023-02-13T18:08:42.152Z,102068.78
2023-02-13T18:11:31.129Z,102080.66
2023-02-13T18:14:19.609Z,102076.06
2023-02-13T18:17:08.240Z,102078.25
2023-02-13T18:19:58.279Z,102068.69
2023-02-13T18:22:46.883Z,102077.13
2023-02-13T18:25:36.844Z,102072.16
2023-02-13T18:28:25.306Z,102077.81
2023-02-13T18:31:14.313Z,102074.94
2023-02-13T18:34:02.859Z,102071.88
2023-02-13T18:36:52.706Z,102064.59
2023-02-13T18:39:41.338Z,102055.06
2023-02-13T18:42:29.848Z,102067.13
2023-02-13T18:45:18.576Z,102060.25
2023-02-13T18:48:09.290Z,102053.31
2023-02-13T18:51:00.375Z,102059.09
2023-02-13T18:53:50.399Z,102054.84
2023-02-13T18:56:38.893Z,102071.94
2023-02-13T18:59:27.556Z,102072.91
2023-02-13T19:02:16.062Z,102076.25
2023-02-13T19:05:06.256Z,102067.28
2023-02-13T19:07:54.739Z,102044.25
2023-02-13T19:10:44.877Z,102058.31
2023-02-13T19:13:34.112Z,102069.63
2023-02-13T19:16:23.324Z,102086.63
2023-02-13T19:19:11.820Z,102070.34
2023-02-13T19:22:00.345Z,102072.69
2023-02-13T19:24:48.892Z,102073.13
2023-02-13T19:27:39.110Z,102068.38
2023-02-13T19:30:27.665Z,102076.88
2023-02-13T19:33:16.170Z,102076.75
2023-02-13T19:36:08.200Z,102069.59
2023-02-13T19:38:58.240Z,102063.88
2023-02-13T19:41:46.799Z,102087.84
2023-02-13T19:44:36.888Z,102072.47
2023-02-13T19:47:25.459Z,102084.66
2023-02-13T19:50:16.566Z,102021.63
2023-02-13T19:53:10.639Z,102079.69
2023-02-13T19:55:59.821Z,102098.34
2023-02-13T19:58:48.363Z,102097.59
2023-02-13T20:01:38.288Z,102095.91
2023-02-13T20:04:26.939Z,102097.00
2023-02-13T20:07:18.475Z,102089.03
2023-02-13T20:10:09.621Z,102061.72
2023-02-13T20:12:58.296Z,101984.25
2023-02-13T20:15:46.816Z,102087.44
2023-02-13T20:18:37.175Z,102083.44
2023-02-13T20:21:26.210Z,102095.19
2023-02-13T20:24:14.692Z,102097.28
2023-02-13T20:27:03.179Z,102085.53
2023-02-13T20:29:58.846Z,102092.84
2023-02-13T20:32:54.906Z,102085.94
2023-02-13T20:35:44.779Z,102084.47
2023-02-13T20:38:33.285Z,102067.72
2023-02-13T20:41:23.035Z,102080.44
2023-02-13T20:44:13.249Z,102081.81
2023-02-13T20:47:01.720Z,102086.66
2023-02-13T20:49:50.252Z,102078.00
2023-02-13T20:52:40.884Z,102086.25
2023-02-13T20:55:29.400Z,102085.69
2023-02-13T20:58:17.976Z,102084.63
2023-02-13T21:01:12.255Z,101987.34
2023-02-13T21:04:01.343Z,102077.53
2023-02-13T21:06:49.938Z,102040.31
2023-02-13T21:09:39.864Z,102078.88
2023-02-13T21:12:28.376Z,102082.22
2023-02-13T21:15:18.793Z,102066.81
2023-02-13T21:18:07.455Z,102050.13
2023-02-13T21:20:57.412Z,102072.09
2023-02-13T21:23:46.452Z,102075.50
2023-02-13T21:26:36.826Z,102071.69
2023-02-13T21:29:25.371Z,102076.44
2023-02-13T21:32:14.061Z,102050.91
2023-02-13T21:35:02.588Z,102081.72
2023-02-13T21:37:51.060Z,102075.13
2023-02-13T21:40:40.711Z,102070.91
2023-02-13T21:43:30.541Z,102074.81
2023-02-13T21:46:21.121Z,102074.69
2023-02-13T21:49:12.934Z,102071.19
2023-02-13T21:52:01.427Z,102063.47
2023-02-13T21:54:49.940Z,102079.44
2023-02-13T21:57:38.484Z,102082.47
2023-02-13T22:00:28.335Z,102070.59
2023-02-13T22:03:16.816Z,102066.63
2023-02-13T22:06:05.531Z,102067.03
2023-02-13T22:08:57.361Z,102069.66
2023-02-13T22:11:45.863Z,102067.50
2023-02-13T22:14:34.313Z,102070.91
2023-02-13T22:17:24.155Z,102074.56
2023-02-13T22:20:13.340Z,102071.84
2023-02-13T22:23:01.838Z,102086.97
2023-02-13T22:25:50.583Z,102079.59
2023-02-13T22:28:39.072Z,102079.78
2023-02-13T22:31:27.783Z,102076.84
2023-02-13T22:34:17.644Z,102082.34
2023-02-13T22:37:06.374Z,102080.09
2023-02-13T22:39:54.834Z,102077.78
2023-02-13T22:42:43.339Z,102081.19
2023-02-13T22:45:32.296Z,102016.63
2023-02-13T22:48:20.727Z,102074.31
2023-02-13T22:51:12.155Z,102073.00
2023-02-13T22:54:01.124Z,102087.06
2023-02-13T22:56:49.718Z,102087.16
2023-02-13T22:59:40.143Z,102081.31
2023-02-13T23:02:28.826Z,102087.53
2023-02-13T23:05:17.750Z,102095.00
2023-02-13T23:08:07.681Z,102082.34
2023-02-13T23:11:13.606Z,102087.16
2023-02-13T23:14:02.272Z,102098.69
2023-02-13T23:17:08.403Z,102090.44
2023-02-13T23:19:56.878Z,102098.88
2023-02-13T23:22:45.374Z,102094.16
2023-02-13T23:25:35.603Z,102098.84
2023-02-13T23:28:24.071Z,102095.16
2023-02-13T23:31:12.921Z,102095.56
2023-02-13T23:34:01.529Z,102096.66
2023-02-13T23:36:50.363Z,102089.00
2023-02-13T23:39:38.811Z,102073.84
2023-02-13T23:42:28.663Z,102086.56
2023-02-13T23:45:17.281Z,102090.72
2023-02-13T23:48:06.018Z,102092.06
2023-02-13T23:50:54.454Z,102086.59
2023-02-13T23:53:42.868Z,102085.00
2023-02-13T23:56:31.582Z,102091.38
2023-02-13T23:59:22.428Z,102091.66
